Time;durP1;ratioP1;P1;durP2;ratioP2;P2;SDS_P1;SDS_P2;PMS_P1;PMS_P2;Temp;Humidity;BMP_temperature;BMP_pressure;BME280_temperature;BME280_humidity;BME280_pressure;Samples;Min_cycle;Max_cycle;Signal;HPM_P1;HPM_P2
2022/06/30 00:02:01;;;;;;;;;;;15.50;99.90;;;;;;5073057;28;19905;-76
2022/06/30 00:04:27;;;;;;;;;;;15.50;99.90;;;;;;5073371;28;19915;-76
2022/06/30 00:06:52;;;;;;;;;;;15.50;99.90;;;;;;5073245;28;20244;-75
2022/06/30 00:09:19;;;;;;;;;;;15.50;99.90;;;;;;5073056;28;19905;-75
2022/06/30 00:11:44;;;;;;;;;;;15.50;99.90;;;;;;5073463;28;19919;-75
2022/06/30 00:14:10;;;;;;;;;;;15.40;99.90;;;;;;5073006;28;19904;-74
2022/06/30 00:16:35;;;;;;;;;;;15.40;99.90;;;;;;5073532;28;19904;-74
2022/06/30 00:19:01;;;;;;;;;;;15.30;99.90;;;;;;5072738;28;19909;-73
2022/06/30 00:21:27;;;;;;;;;;;15.40;99.90;;;;;;5073798;28;19905;-73
2022/06/30 00:23:52;;;;;;;;;;;15.40;99.90;;;;;;5055761;28;19954;-74
2022/06/30 00:26:18;;;;;;;;;;;15.40;99.90;;;;;;5073342;28;20243;-74
2022/06/30 00:28:43;;;;;;;;;;;15.30;99.90;;;;;;5073046;28;19916;-74
2022/06/30 00:31:09;;;;;;;;;;;15.30;99.90;;;;;;5072923;28;19904;-74
2022/06/30 00:33:34;;;;;;;;;;;15.30;99.90;;;;;;5055608;28;19904;-73
2022/06/30 00:36:00;;;;;;;;;;;15.20;99.90;;;;;;5072432;28;20424;-74
2022/06/30 00:38:25;;;;;;;;;;;15.20;99.90;;;;;;5073274;28;19948;-75
2022/06/30 00:40:51;;;;;;;;;;;15.20;99.90;;;;;;5073027;28;19950;-74
2022/06/30 00:43:17;;;;;;;;;;;15.30;99.90;;;;;;5072798;28;20477;-73
2022/06/30 00:45:43;;;;;;;;;;;15.20;99.90;;;;;;5073302;28;19908;-73
2022/06/30 00:48:09;;;;;;;;;;;15.20;99.90;;;;;;5072650;28;19962;-73
2022/06/30 00:50:35;;;;;;;;;;;15.20;99.90;;;;;;5055342;28;19944;-73
2022/06/30 00:53:03;;;;;;;;;;;15.20;99.90;;;;;;5072551;28;19908;-73
2022/06/30 00:55:29;;;;;;;;;;;15.20;99.90;;;;;;5073205;28;19904;-73
2022/06/30 00:57:56;;;;;;;;;;;15.20;99.90;;;;;;5073130;28;19904;-74
2022/06/30 01:00:23;;;;;;;;;;;15.10;99.90;;;;;;5072349;28;19904;-74
2022/06/30 01:02:49;;;;;;;;;;;15.10;99.90;;;;;;5073042;28;19904;-74
2022/06/30 01:05:15;;;;;;;;;;;15.10;99.90;;;;;;5054384;28;20363;-73
2022/06/30 01:07:42;;;;;;;;;;;15.10;99.90;;;;;;5072818;28;20045;-73
2022/06/30 01:12:51;;;;;;;;;;;15.00;99.90;;;;;;5073080;28;19916;-73
2022/06/30 01:15:18;;;;;;;;;;;15.00;99.90;;;;;;5072411;28;19908;-73
2022/06/30 01:17:44;;;;;;;;;;;15.00;99.90;;;;;;5072771;28;19908;-73
2022/06/30 01:20:10;;;;;;;;;;;15.00;99.90;;;;;;5071902;28;19991;-73
2022/06/30 01:22:36;;;;;;;;;;;15.00;99.90;;;;;;5072847;28;20003;-73
2022/06/30 01:25:02;;;;;;;;;;;15.00;99.90;;;;;;5072256;28;19904;-73
2022/06/30 01:27:28;;;;;;;;;;;15.00;99.90;;;;;;5072713;28;19919;-73
2022/06/30 01:29:54;;;;;;;;;;;15.00;99.90;;;;;;5075909;28;19987;-73
2022/06/30 01:32:20;;;;;;;;;;;15.00;99.90;;;;;;5078657;28;19907;-72
2022/06/30 01:34:45;;;;;;;;;;;15.00;99.90;;;;;;5079506;28;20362;-73
2022/06/30 01:37:11;;;;;;;;;;;15.00;99.90;;;;;;5078899;28;19930;-72
2022/06/30 01:39:36;;;;;;;;;;;15.00;99.90;;;;;;5079371;28;20316;-73
2022/06/30 01:42:02;;;;;;;;;;;15.00;99.90;;;;;;5078233;28;19912;-72
2022/06/30 01:44:28;;;;;;;;;;;14.90;99.90;;;;;;5061345;28;20366;-73
2022/06/30 01:46:54;;;;;;;;;;;14.90;99.90;;;;;;5078780;28;19927;-73
2022/06/30 01:49:19;;;;;;;;;;;14.90;99.90;;;;;;5078290;28;19904;-73
2022/06/30 01:51:45;;;;;;;;;;;14.90;99.90;;;;;;5061199;28;19910;-73
2022/06/30 01:54:10;;;;;;;;;;;14.90;99.90;;;;;;5060042;28;19905;-73
2022/06/30 01:56:36;;;;;;;;;;;15.00;99.90;;;;;;5078941;28;20360;-73
2022/06/30 01:59:03;;;;;;;;;;;15.00;99.90;;;;;;5078025;28;20373;-72
2022/06/30 02:01:28;;;;;;;;;;;14.90;99.90;;;;;;5078921;28;19904;-73
2022/06/30 02:03:54;;;;;;;;;;;14.90;99.90;;;;;;5060775;28;19915;-73
2022/06/30 02:06:19;;;;;;;;;;;14.90;99.90;;;;;;5078162;28;19904;-73
2022/06/30 02:08:45;;;;;;;;;;;14.90;99.90;;;;;;5078263;28;20363;-73
2022/06/30 02:11:11;;;;;;;;;;;14.80;99.90;;;;;;5078281;28;20344;-73
2022/06/30 02:13:36;;;;;;;;;;;14.70;99.90;;;;;;5079050;28;19931;-73
2022/06/30 02:16:02;;;;;;;;;;;14.80;99.90;;;;;;5078781;28;19946;-73
2022/06/30 02:18:27;;;;;;;;;;;14.70;99.90;;;;;;5078450;28;19904;-74
2022/06/30 02:20:53;;;;;;;;;;;14.70;99.90;;;;;;5078960;28;19908;-73
2022/06/30 02:23:19;;;;;;;;;;;14.70;99.90;;;;;;5078395;28;19904;-73
2022/06/30 02:25:44;;;;;;;;;;;14.60;99.90;;;;;;5078776;28;20244;-73
2022/06/30 02:28:10;;;;;;;;;;;14.60;99.90;;;;;;5078027;28;19957;-73
2022/06/30 02:30:36;;;;;;;;;;;14.60;99.90;;;;;;5078756;28;19905;-73
2022/06/30 02:33:02;;;;;;;;;;;14.60;99.90;;;;;;5078826;28;19910;-73
2022/06/30 02:35:28;;;;;;;;;;;14.60;99.90;;;;;;5078159;28;19939;-73
2022/06/30 02:37:53;;;;;;;;;;;14.50;99.90;;;;;;5078399;28;19943;-73
2022/06/30 02:40:19;;;;;;;;;;;14.50;99.90;;;;;;5077699;28;19912;-73
2022/06/30 02:42:45;;;;;;;;;;;14.50;99.90;;;;;;5075108;28;20339;-74
2022/06/30 02:45:10;;;;;;;;;;;14.50;99.90;;;;;;5075024;28;19904;-73
2022/06/30 02:47:37;;;;;;;;;;;14.50;99.90;;;;;;5075218;28;20347;-73
2022/06/30 02:50:03;;;;;;;;;;;14.50;99.90;;;;;;5075345;28;19926;-73
2022/06/30 02:52:30;;;;;;;;;;;14.50;99.90;;;;;;5074846;28;19905;-73
2022/06/30 02:54:56;;;;;;;;;;;14.50;99.90;;;;;;5075408;28;19950;-72
2022/06/30 02:57:22;;;;;;;;;;;14.40;99.90;;;;;;5074771;28;19909;-73
2022/06/30 02:59:47;;;;;;;;;;;14.40;99.90;;;;;;5075220;28;19999;-73
2022/06/30 03:02:13;;;;;;;;;;;14.40;99.90;;;;;;5074425;28;20256;-73
2022/06/30 03:04:38;;;;;;;;;;;14.40;99.90;;;;;;5075191;28;19910;-73
2022/06/30 03:07:04;;;;;;;;;;;14.40;99.90;;;;;;5074983;28;19923;-73
2022/06/30 03:09:29;;;;;;;;;;;14.40;99.90;;;;;;5074940;28;20361;-73
2022/06/30 03:11:55;;;;;;;;;;;14.40;99.90;;;;;;5075022;28;19904;-73
2022/06/30 03:14:21;;;;;;;;;;;14.40;99.90;;;;;;5074305;28;20359;-73
2022/06/30 03:16:46;;;;;;;;;;;14.40;99.90;;;;;;5074762;28;19950;-73
2022/06/30 03:19:12;;;;;;;;;;;14.40;99.90;;;;;;5074284;28;19919;-73
2022/06/30 03:21:37;;;;;;;;;;;14.30;99.90;;;;;;5074836;28;19911;-73
2022/06/30 03:24:03;;;;;;;;;;;14.30;99.90;;;;;;5074910;28;19908;-73
2022/06/30 03:26:29;;;;;;;;;;;14.20;99.90;;;;;;5074227;28;20393;-73
2022/06/30 03:28:54;;;;;;;;;;;14.20;99.90;;;;;;5074796;28;19912;-73
2022/06/30 03:31:20;;;;;;;;;;;14.20;99.90;;;;;;5074180;28;20377;-73
2022/06/30 03:33:45;;;;;;;;;;;14.20;99.90;;;;;;5074656;28;19905;-74
2022/06/30 03:36:11;;;;;;;;;;;14.20;99.90;;;;;;5073508;28;19916;-74
2022/06/30 03:38:36;;;;;;;;;;;14.20;99.90;;;;;;5074261;28;19926;-74
2022/06/30 03:41:02;;;;;;;;;;;14.20;99.90;;;;;;5074564;28;20355;-74
2022/06/30 03:43:28;;;;;;;;;;;14.20;99.90;;;;;;5073880;28;20019;-73
2022/06/30 03:45:53;;;;;;;;;;;14.20;99.90;;;;;;5074350;28;20412;-73
2022/06/30 03:48:19;;;;;;;;;;;14.20;99.90;;;;;;5073695;28;19912;-73
2022/06/30 03:50:45;;;;;;;;;;;14.20;99.90;;;;;;5074126;28;20256;-74
2022/06/30 03:53:10;;;;;;;;;;;14.20;99.90;;;;;;5072672;28;19904;-74
2022/06/30 03:55:39;;;;;;;;;;;14.20;99.90;;;;;;5074326;28;20057;-74
2022/06/30 03:58:06;;;;;;;;;;;14.20;99.90;;;;;;5074154;28;19958;-74
2022/06/30 04:00:31;;;;;;;;;;;14.20;99.90;;;;;;5073604;28;19912;-74
2022/06/30 04:02:57;;;;;;;;;;;14.10;99.90;;;;;;5074050;28;20267;-73
2022/06/30 04:05:23;;;;;;;;;;;14.10;99.90;;;;;;5073643;28;20291;-73
2022/06/30 04:07:48;;;;;;;;;;;14.10;99.90;;;;;;5073661;28;19952;-73
2022/06/30 04:10:14;;;;;;;;;;;14.10;99.90;;;;;;5073228;28;19909;-74
2022/06/30 04:12:40;;;;;;;;;;;14.00;99.90;;;;;;5073458;28;19910;-74
2022/06/30 04:15:06;;;;;;;;;;;14.00;99.90;;;;;;5073795;28;19905;-73
2022/06/30 04:17:33;;;;;;;;;;;13.90;99.90;;;;;;5073199;28;20003;-73
2022/06/30 04:20:17;;;;;;;;;;;13.90;99.90;;;;;;5073489;28;19991;-74
2022/06/30 04:22:43;;;;;;;;;;;13.90;99.90;;;;;;5073836;28;19904;-74
2022/06/30 04:25:09;;;;;;;;;;;13.90;99.90;;;;;;5073573;28;19904;-73
2022/06/30 04:27:35;;;;;;;;;;;13.80;99.90;;;;;;5073429;28;19966;-73
2022/06/30 04:30:00;;;;;;;;;;;13.80;99.90;;;;;;5073244;28;19940;-73
2022/06/30 04:32:38;;;;;;;;;;;13.80;99.90;;;;;;5055256;28;19905;-74
2022/06/30 04:35:12;;;;;;;;;;;13.70;99.90;;;;;;5073543;28;19999;-73
2022/06/30 04:37:38;;;;;;;;;;;13.80;99.90;;;;;;5073146;28;19975;-73
2022/06/30 04:42:48;;;;;;;;;;;13.80;99.90;;;;;;5073373;28;19958;-73
2022/06/30 04:45:14;;;;;;;;;;;13.70;99.90;;;;;;5072803;28;19951;-73
2022/06/30 04:47:40;;;;;;;;;;;13.70;99.90;;;;;;5072803;28;20378;-74
2022/06/30 04:50:06;;;;;;;;;;;13.70;99.90;;;;;;5073204;28;19905;-74
2022/06/30 04:52:32;;;;;;;;;;;13.70;99.90;;;;;;5072296;28;20569;-73
2022/06/30 04:54:57;;;;;;;;;;;13.70;99.90;;;;;;5073126;28;19940;-73
2022/06/30 04:57:23;;;;;;;;;;;13.70;99.90;;;;;;5072481;28;20397;-74
2022/06/30 04:59:48;;;;;;;;;;;13.70;99.90;;;;;;5072980;28;19944;-74
2022/06/30 05:02:14;;;;;;;;;;;13.70;99.90;;;;;;5072458;28;19905;-74
2022/06/30 05:04:40;;;;;;;;;;;13.70;99.90;;;;;;5054686;28;19930;-74
2022/06/30 05:07:05;;;;;;;;;;;13.70;99.90;;;;;;5072958;28;19959;-73
2022/06/30 05:09:31;;;;;;;;;;;13.70;99.90;;;;;;5072405;28;19910;-73
2022/06/30 05:11:56;;;;;;;;;;;13.70;99.90;;;;;;5072909;28;19911;-73
2022/06/30 05:14:22;;;;;;;;;;;13.80;99.90;;;;;;5072418;28;19910;-74
2022/06/30 05:16:47;;;;;;;;;;;13.80;99.90;;;;;;5072598;28;20316;-73
2022/06/30 05:19:13;;;;;;;;;;;13.80;99.90;;;;;;5072672;28;20404;-74
2022/06/30 05:21:39;;;;;;;;;;;13.90;99.90;;;;;;5072492;28;19905;-73
2022/06/30 05:26:49;;;;;;;;;;;13.90;99.90;;;;;;5072532;28;19950;-74
2022/06/30 05:29:14;;;;;;;;;;;14.00;99.90;;;;;;5072347;28;20350;-74
2022/06/30 05:31:40;;;;;;;;;;;14.00;99.90;;;;;;5072206;28;19927;-74
2022/06/30 05:34:06;;;;;;;;;;;14.00;99.90;;;;;;5072772;28;19911;-74
2022/06/30 05:36:32;;;;;;;;;;;14.10;99.90;;;;;;5071874;28;19916;-74
2022/06/30 05:38:57;;;;;;;;;;;14.10;99.90;;;;;;5072327;28;19961;-74
2022/06/30 05:41:23;;;;;;;;;;;14.00;99.90;;;;;;5071634;28;19943;-73
2022/06/30 05:43:51;;;;;;;;;;;14.10;99.90;;;;;;5072559;28;20401;-73
2022/06/30 05:46:16;;;;;;;;;;;14.10;99.90;;;;;;5072000;28;19936;-73
2022/06/30 05:48:42;;;;;;;;;;;14.10;99.90;;;;;;5072390;28;19967;-73
2022/06/30 05:51:08;;;;;;;;;;;14.10;99.90;;;;;;5072428;28;20011;-73
2022/06/30 05:53:33;;;;;;;;;;;14.10;99.90;;;;;;5071878;28;19944;-73
2022/06/30 05:55:59;;;;;;;;;;;14.10;99.90;;;;;;5054368;28;19905;-73
2022/06/30 05:58:24;;;;;;;;;;;14.10;99.90;;;;;;5071853;28;19904;-73
2022/06/30 06:00:50;;;;;;;;;;;14.20;99.90;;;;;;5072735;28;20003;-73
2022/06/30 06:03:16;;;;;;;;;;;14.20;99.90;;;;;;5071893;28;20299;-74
2022/06/30 06:05:42;;;;;;;;;;;14.20;99.90;;;;;;5072085;28;19913;-73
2022/06/30 06:08:08;;;;;;;;;;;14.20;99.90;;;;;;5072308;28;19983;-73
2022/06/30 06:10:34;;;;;;;;;;;14.20;99.90;;;;;;5071434;28;19995;-73
2022/06/30 06:12:59;;;;;;;;;;;14.20;99.90;;;;;;5072296;28;20042;-73
2022/06/30 06:15:25;;;;;;;;;;;14.20;99.90;;;;;;5071371;28;19958;-73
2022/06/30 06:17:51;;;;;;;;;;;14.20;99.90;;;;;;5075703;28;19912;-73
2022/06/30 06:20:17;;;;;;;;;;;14.20;99.90;;;;;;5057916;28;20317;-73
2022/06/30 06:22:43;;;;;;;;;;;14.20;99.90;;;;;;5075571;28;19905;-73
2022/06/30 06:25:09;;;;;;;;;;;14.20;99.90;;;;;;5075656;28;20260;-74
2022/06/30 06:27:35;;;;;;;;;;;14.20;99.90;;;;;;5075278;28;19912;-74
2022/06/30 06:30:03;;;;;;;;;;;14.30;99.90;;;;;;5075978;28;20330;-73
2022/06/30 06:32:28;;;;;;;;;;;14.30;99.90;;;;;;5074977;28;19904;-74
2022/06/30 06:34:54;;;;;;;;;;;14.30;99.90;;;;;;5075916;28;20323;-74
2022/06/30 06:37:19;;;;;;;;;;;14.30;99.90;;;;;;5075199;28;19920;-75
2022/06/30 06:39:45;;;;;;;;;;;14.30;99.90;;;;;;5075615;28;20339;-75
2022/06/30 06:42:10;;;;;;;;;;;14.30;99.90;;;;;;5075321;28;19908;-75
2022/06/30 06:44:36;;;;;;;;;;;14.30;99.90;;;;;;5074952;28;19958;-75
2022/06/30 06:47:01;;;;;;;;;;;14.30;99.90;;;;;;5075493;28;19911;-75
2022/06/30 06:49:27;;;;;;;;;;;14.30;99.90;;;;;;5074868;28;19957;-75
2022/06/30 06:51:53;;;;;;;;;;;14.40;99.90;;;;;;5075281;28;19912;-74
2022/06/30 06:54:19;;;;;;;;;;;14.40;99.90;;;;;;5075347;28;20405;-75
2022/06/30 06:56:44;;;;;;;;;;;14.40;99.90;;;;;;5056872;28;19904;-76
2022/06/30 06:59:10;;;;;;;;;;;14.40;99.90;;;;;;5075228;28;20301;-77
2022/06/30 07:01:35;;;;;;;;;;;14.40;99.90;;;;;;5056446;28;19905;-80
2022/06/30 07:04:01;;;;;;;;;;;14.50;99.90;;;;;;5074847;28;20016;-81
2022/06/30 07:06:27;;;;;;;;;;;14.50;99.90;;;;;;5074900;28;19904;-82
2022/06/30 07:08:52;;;;;;;;;;;14.50;99.90;;;;;;5074907;28;20350;-81
2022/06/30 07:11:18;;;;;;;;;;;14.60;99.90;;;;;;5075115;28;19904;-78
2022/06/30 07:13:43;;;;;;;;;;;14.50;99.90;;;;;;5074417;28;20349;-79
2022/06/30 07:16:09;;;;;;;;;;;14.50;99.90;;;;;;5074731;28;20378;-78
2022/06/30 07:18:34;;;;;;;;;;;14.50;99.90;;;;;;5074399;28;20249;-79
2022/06/30 07:21:00;;;;;;;;;;;14.50;99.90;;;;;;5074873;28;19915;-78
2022/06/30 07:23:26;;;;;;;;;;;14.40;99.90;;;;;;5074170;28;19955;-75
2022/06/30 07:25:51;;;;;;;;;;;14.40;99.90;;;;;;5056790;28;19904;-76
2022/06/30 07:28:17;;;;;;;;;;;14.40;99.90;;;;;;5074269;28;19912;-76
2022/06/30 07:30:42;;;;;;;;;;;14.30;99.90;;;;;;5073811;28;19904;-76
2022/06/30 07:33:08;;;;;;;;;;;14.30;99.90;;;;;;5074414;28;20328;-76
2022/06/30 07:35:34;;;;;;;;;;;14.30;99.90;;;;;;5073894;28;19915;-76
2022/06/30 07:37:59;;;;;;;;;;;14.40;99.90;;;;;;5074591;28;19988;-75
2022/06/30 07:40:25;;;;;;;;;;;14.40;99.90;;;;;;5073641;28;19930;-76
2022/06/30 07:42:52;;;;;;;;;;;14.40;99.90;;;;;;5074256;28;19911;-75
2022/06/30 07:45:24;;;;;;;;;;;14.40;99.90;;;;;;5074180;28;19904;-75
2022/06/30 07:47:51;;;;;;;;;;;14.40;99.90;;;;;;5073949;28;19954;-75
2022/06/30 07:50:17;;;;;;;;;;;14.40;99.90;;;;;;5074059;28;19972;-74
2022/06/30 07:52:43;;;;;;;;;;;14.40;99.90;;;;;;5073299;28;19904;-74
2022/06/30 07:55:09;;;;;;;;;;;14.40;99.90;;;;;;5056642;28;19904;-74
2022/06/30 07:57:38;;;;;;;;;;;14.50;99.90;;;;;;5073374;28;20033;-74
2022/06/30 08:00:05;;;;;;;;;;;14.40;99.90;;;;;;5074199;28;19915;-74
2022/06/30 08:02:30;;;;;;;;;;;14.50;99.90;;;;;;5073339;28;19904;-74
2022/06/30 08:04:56;;;;;;;;;;;14.60;99.90;;;;;;5073203;28;20312;-74
2022/06/30 08:07:21;;;;;;;;;;;14.60;99.90;;;;;;5073779;28;19958;-73
2022/06/30 08:09:47;;;;;;;;;;;14.70;99.90;;;;;;5072939;28;19927;-73
2022/06/30 08:12:13;;;;;;;;;;;14.80;99.90;;;;;;5073796;28;19904;-72
2022/06/30 08:14:38;;;;;;;;;;;14.90;99.90;;;;;;5072848;28;19904;-75
2022/06/30 08:17:04;;;;;;;;;;;15.00;99.90;;;;;;5073242;28;19908;-74
2022/06/30 08:19:30;;;;;;;;;;;15.20;99.90;;;;;;5054989;28;20240;-74
2022/06/30 08:21:55;;;;;;;;;;;15.20;99.90;;;;;;5072975;28;19911;-74
2022/06/30 08:24:21;;;;;;;;;;;15.30;99.90;;;;;;5073360;28;19911;-74
2022/06/30 08:26:46;;;;;;;;;;;15.30;99.90;;;;;;5072924;28;19986;-74
2022/06/30 08:29:13;;;;;;;;;;;15.40;99.90;;;;;;5072866;28;19995;-74
2022/06/30 08:31:39;;;;;;;;;;;15.40;99.90;;;;;;5072473;28;19908;-74
2022/06/30 08:34:05;;;;;;;;;;;15.40;99.90;;;;;;5072693;28;19912;-74
2022/06/30 08:36:30;;;;;;;;;;;15.50;99.90;;;;;;5071899;28;19923;-74
2022/06/30 08:38:56;;;;;;;;;;;15.60;99.90;;;;;;5072164;28;19905;-74
2022/06/30 08:44:06;;;;;;;;;;;15.70;99.90;;;;;;5071935;28;19911;-74
2022/06/30 08:46:33;;;;;;;;;;;15.70;99.90;;;;;;5071515;28;19904;-74
2022/06/30 08:48:59;;;;;;;;;;;15.80;99.90;;;;;;5072375;28;19912;-74
2022/06/30 08:51:25;;;;;;;;;;;15.90;99.90;;;;;;5072346;28;19915;-75
2022/06/30 08:53:52;;;;;;;;;;;15.90;99.90;;;;;;5071987;28;19904;-75
2022/06/30 08:56:18;;;;;;;;;;;16.00;99.90;;;;;;5072427;28;19904;-75
2022/06/30 08:58:44;;;;;;;;;;;16.00;99.90;;;;;;5071693;28;19909;-75
2022/06/30 09:01:09;;;;;;;;;;;16.20;99.90;;;;;;5072333;28;19912;-75
2022/06/30 09:03:37;;;;;;;;;;;16.20;99.90;;;;;;5071649;28;19947;-73
2022/06/30 09:06:03;;;;;;;;;;;16.20;99.90;;;;;;5072077;28;19911;-74
2022/06/30 09:08:28;;;;;;;;;;;16.20;99.90;;;;;;5071623;28;19955;-73
2022/06/30 09:10:54;;;;;;;;;;;16.30;99.90;;;;;;5072102;28;19908;-75
2022/06/30 09:13:21;;;;;;;;;;;16.40;99.90;;;;;;5072149;28;19954;-74
2022/06/30 09:15:49;;;;;;;;;;;16.40;99.90;;;;;;5071416;28;19996;-75
2022/06/30 09:18:32;;;;;;;;;;;16.40;99.90;;;;;;5072315;28;19923;-74
2022/06/30 09:20:59;;;;;;;;;;;16.50;99.90;;;;;;5071854;28;19908;-75
2022/06/30 09:23:25;;;;;;;;;;;16.50;99.90;;;;;;5072052;28;19991;-75
2022/06/30 09:25:53;;;;;;;;;;;16.50;99.90;;;;;;5071641;28;19904;-75
2022/06/30 09:28:37;;;;;;;;;;;16.50;99.90;;;;;;5071893;28;20370;-75
2022/06/30 09:31:03;;;;;;;;;;;16.60;99.90;;;;;;5072337;28;20361;-75
2022/06/30 09:33:35;;;;;;;;;;;16.70;99.90;;;;;;5071561;28;19905;-75
2022/06/30 09:36:19;;;;;;;;;;;16.70;99.90;;;;;;5071528;28;19927;-75
2022/06/30 09:38:58;;;;;;;;;;;16.90;99.90;;;;;;5071310;28;19945;-75
2022/06/30 09:41:35;;;;;;;;;;;17.10;99.90;;;;;;5071862;28;19905;-75
2022/06/30 09:44:00;;;;;;;;;;;17.20;99.90;;;;;;5071841;28;19913;-75
2022/06/30 09:46:26;;;;;;;;;;;17.30;99.90;;;;;;5071569;28;20389;-75
2022/06/30 09:48:51;;;;;;;;;;;17.40;99.90;;;;;;5071389;28;20432;-75
2022/06/30 09:51:17;;;;;;;;;;;17.60;99.90;;;;;;5074093;28;20304;-75
2022/06/30 09:54:03;;;;;;;;;;;17.70;99.90;;;;;;5075332;28;19930;-76
2022/06/30 09:56:29;;;;;;;;;;;17.90;99.90;;;;;;5075088;28;19912;-75
2022/06/30 09:58:54;;;;;;;;;;;18.10;99.90;;;;;;5076023;28;19915;-75
2022/06/30 10:01:20;;;;;;;;;;;18.20;99.90;;;;;;5075740;28;20262;-75
2022/06/30 10:03:47;;;;;;;;;;;18.30;99.90;;;;;;5075507;28;20342;-75
2022/06/30 10:06:14;;;;;;;;;;;18.30;99.90;;;;;;5075605;28;19912;-75
2022/06/30 10:08:40;;;;;;;;;;;18.20;99.90;;;;;;5074961;28;19966;-75
2022/06/30 10:11:06;;;;;;;;;;;18.10;99.90;;;;;;5075608;28;19905;-75
2022/06/30 10:13:36;;;;;;;;;;;18.20;99.90;;;;;;5075178;28;19908;-75
2022/06/30 10:16:03;;;;;;;;;;;18.10;99.90;;;;;;5075428;28;19906;-75
2022/06/30 10:18:29;;;;;;;;;;;18.10;99.90;;;;;;5074574;28;20347;-75
2022/06/30 10:20:55;;;;;;;;;;;18.00;99.90;;;;;;5075341;28;19914;-75
2022/06/30 10:23:22;;;;;;;;;;;18.00;99.90;;;;;;5075285;28;19958;-76
2022/06/30 10:25:48;;;;;;;;;;;18.00;99.90;;;;;;5074461;28;19900;-76
2022/06/30 10:28:18;;;;;;;;;;;17.90;99.90;;;;;;5075354;28;19980;-76
2022/06/30 10:30:46;;;;;;;;;;;18.00;99.90;;;;;;5074618;28;19913;-75
2022/06/30 10:33:14;;;;;;;;;;;17.80;99.90;;;;;;5075214;28;19957;-76
2022/06/30 10:35:55;;;;;;;;;;;17.80;99.90;;;;;;5056232;28;20252;-75
2022/06/30 10:38:20;;;;;;;;;;;17.70;99.90;;;;;;5075258;28;19904;-76
2022/06/30 10:40:54;;;;;;;;;;;17.90;99.90;;;;;;5074162;28;19912;-76
2022/06/30 10:43:20;;;;;;;;;;;18.00;99.90;;;;;;5067694;28;19916;-75
2022/06/30 10:45:56;;;;;;;;;;;18.00;99.90;;;;;;5057344;28;20514;-75
2022/06/30 10:48:22;;;;;;;;;;;18.20;99.90;;;;;;5054426;28;20283;-76
2022/06/30 10:50:49;;;;;;;;;;;18.10;99.90;;;;;;5054023;28;19904;-75
2022/06/30 10:53:17;;;;;;;;;;;18.10;99.90;;;;;;5054689;28;19928;-76
2022/06/30 10:55:52;;;;;;;;;;;18.20;99.90;;;;;;5054347;28;19998;-76
2022/06/30 10:58:19;;;;;;;;;;;18.20;99.90;;;;;;5075297;28;19943;-76
2022/06/30 11:01:02;;;;;;;;;;;18.20;99.90;;;;;;5075589;28;19920;-75
2022/06/30 11:03:34;;;;;;;;;;;18.20;99.90;;;;;;5073530;28;19909;-75
2022/06/30 11:06:05;;;;;;;;;;;18.20;99.90;;;;;;5074135;28;19904;-76
2022/06/30 11:08:50;;;;;;;;;;;18.10;99.90;;;;;;5073863;28;19912;-76
2022/06/30 11:11:24;;;;;;;;;;;18.10;99.90;;;;;;5074423;28;19904;-75
2022/06/30 11:13:51;;;;;;;;;;;18.10;99.90;;;;;;5073599;28;19908;-76
2022/06/30 11:16:17;;;;;;;;;;;18.10;99.90;;;;;;5074274;28;19904;-76
2022/06/30 11:18:43;;;;;;;;;;;18.10;99.90;;;;;;5073578;28;19904;-76
2022/06/30 11:21:09;;;;;;;;;;;18.10;99.90;;;;;;5056566;28;19912;-76
2022/06/30 11:23:42;;;;;;;;;;;18.10;99.90;;;;;;5073687;28;19912;-76
2022/06/30 11:28:52;;;;;;;;;;;18.20;99.90;;;;;;5074107;28;19919;-76
2022/06/30 11:31:31;;;;;;;;;;;18.40;99.90;;;;;;5074551;28;19904;-76
2022/06/30 11:33:59;;;;;;;;;;;18.60;99.90;;;;;;5074594;28;19911;-76
2022/06/30 11:36:25;;;;;;;;;;;18.50;99.90;;;;;;5074094;28;19920;-75
2022/06/30 11:38:58;;;;;;;;;;;18.60;99.90;;;;;;5055480;28;19915;-76
2022/06/30 11:44:09;;;;;;;;;;;18.70;99.90;;;;;;5074466;28;19911;-76
2022/06/30 11:46:48;;;;;;;;;;;18.80;99.90;;;;;;5073642;28;19908;-76
2022/06/30 11:49:13;;;;;;;;;;;18.90;99.90;;;;;;5074010;28;19912;-76
2022/06/30 11:51:39;;;;;;;;;;;19.00;99.90;;;;;;5073602;28;19915;-76
2022/06/30 11:54:05;;;;;;;;;;;19.10;99.90;;;;;;5073925;28;20294;-76
2022/06/30 11:56:47;;;;;;;;;;;18.90;99.90;;;;;;5055451;28;19911;-76
2022/06/30 11:59:13;;;;;;;;;;;18.80;99.90;;;;;;5074002;28;19908;-76
2022/06/30 12:01:40;;;;;;;;;;;18.60;99.90;;;;;;5073434;28;19911;-76
2022/06/30 12:04:13;;;;;;;;;;;18.40;99.90;;;;;;5055840;28;20297;-75
2022/06/30 12:06:38;;;;;;;;;;;18.10;99.90;;;;;;5055442;28;20263;-76
2022/06/30 12:09:04;;;;;;;;;;;17.90;99.90;;;;;;5073767;28;19916;-75
2022/06/30 12:11:30;;;;;;;;;;;17.60;99.90;;;;;;5073318;28;20009;-75
2022/06/30 12:13:56;;;;;;;;;;;17.40;99.90;;;;;;5072150;28;20363;-75
2022/06/30 12:16:21;;;;;;;;;;;17.20;99.90;;;;;;5073718;28;19904;-74
2022/06/30 12:18:47;;;;;;;;;;;17.00;99.90;;;;;;5073170;28;20008;-75
2022/06/30 12:21:13;;;;;;;;;;;16.80;99.90;;;;;;5073562;28;20339;-75
2022/06/30 12:23:39;;;;;;;;;;;16.60;99.90;;;;;;5072990;28;19911;-75
2022/06/30 12:26:06;;;;;;;;;;;16.60;99.90;;;;;;5073332;28;19998;-75
2022/06/30 12:28:45;;;;;;;;;;;16.50;99.90;;;;;;5072933;28;19919;-75
2022/06/30 12:31:11;;;;;;;;;;;16.50;99.90;;;;;;5073382;28;19948;-75
2022/06/30 12:33:39;;;;;;;;;;;16.50;99.90;;;;;;5072566;28;19966;-74
2022/06/30 12:36:05;;;;;;;;;;;16.50;99.90;;;;;;5073194;28;19916;-74
2022/06/30 12:38:31;;;;;;;;;;;16.50;99.90;;;;;;5072846;28;19917;-74
2022/06/30 12:40:56;;;;;;;;;;;16.50;99.90;;;;;;5072387;28;20260;-74
2022/06/30 12:43:22;;;;;;;;;;;16.50;99.90;;;;;;5072786;28;20339;-74
2022/06/30 12:45:56;;;;;;;;;;;16.50;99.90;;;;;;5072722;28;19904;-74
2022/06/30 12:48:40;;;;;;;;;;;16.50;99.90;;;;;;5072690;28;19950;-75
2022/06/30 12:51:07;;;;;;;;;;;16.60;99.90;;;;;;5072366;28;19927;-74
2022/06/30 12:53:32;;;;;;;;;;;16.70;99.90;;;;;;5072316;28;19908;-74
2022/06/30 12:56:03;;;;;;;;;;;16.70;99.90;;;;;;5072026;28;19909;-74
2022/06/30 12:58:46;;;;;;;;;;;16.80;99.90;;;;;;5072456;28;20397;-74
2022/06/30 13:01:15;;;;;;;;;;;17.00;99.90;;;;;;5054324;28;20358;-74
2022/06/30 13:03:47;;;;;;;;;;;17.00;99.90;;;;;;5071584;28;19999;-74
2022/06/30 13:06:12;;;;;;;;;;;17.10;99.90;;;;;;5072610;28;19904;-74
2022/06/30 13:08:38;;;;;;;;;;;17.20;99.90;;;;;;5071602;28;19912;-75
2022/06/30 13:11:07;;;;;;;;;;;17.20;99.90;;;;;;5054109;28;19930;-74
2022/06/30 13:13:32;;;;;;;;;;;17.30;99.90;;;;;;5071643;28;19912;-74
2022/06/30 13:15:58;;;;;;;;;;;17.40;99.90;;;;;;5071826;28;19905;-74
2022/06/30 13:18:24;;;;;;;;;;;17.60;99.90;;;;;;5072867;28;20003;-74
2022/06/30 13:20:49;;;;;;;;;;;17.70;99.90;;;;;;5071606;28;19942;-75
2022/06/30 13:23:15;;;;;;;;;;;17.70;99.90;;;;;;5072392;28;19904;-75
2022/06/30 13:25:40;;;;;;;;;;;17.80;99.90;;;;;;5071629;28;19904;-75
2022/06/30 13:28:06;;;;;;;;;;;17.90;99.90;;;;;;5054556;28;19912;-74
2022/06/30 13:30:31;;;;;;;;;;;18.00;99.90;;;;;;5072506;28;19905;-75
2022/06/30 13:32:57;;;;;;;;;;;18.20;99.90;;;;;;5071561;28;20401;-75
2022/06/30 13:35:23;;;;;;;;;;;18.40;99.90;;;;;;5053605;28;19908;-75
2022/06/30 13:37:48;;;;;;;;;;;18.50;99.90;;;;;;5072093;28;19924;-75
2022/06/30 13:40:14;;;;;;;;;;;18.70;99.90;;;;;;5072068;28;20366;-75
2022/06/30 13:42:39;;;;;;;;;;;18.80;99.90;;;;;;5071268;28;19904;-75
2022/06/30 13:45:05;;;;;;;;;;;18.90;99.90;;;;;;5071641;28;19912;-75
2022/06/30 13:47:32;;;;;;;;;;;18.90;99.90;;;;;;5071573;28;20015;-75
2022/06/30 13:49:58;;;;;;;;;;;18.90;99.90;;;;;;5070986;28;20426;-75
2022/06/30 13:52:23;;;;;;;;;;;18.90;99.90;;;;;;5071658;28;19904;-75
2022/06/30 13:54:49;;;;;;;;;;;18.90;99.90;;;;;;5071113;28;19908;-75
2022/06/30 13:57:15;;;;;;;;;;;18.80;99.90;;;;;;5071862;28;20244;-75
2022/06/30 13:59:40;;;;;;;;;;;18.70;99.90;;;;;;5071000;28;19904;-75
2022/06/30 14:02:06;;;;;;;;;;;18.60;99.90;;;;;;5071230;28;19984;-75
2022/06/30 14:04:31;;;;;;;;;;;18.50;99.90;;;;;;5071405;28;19944;-74
2022/06/30 14:06:57;;;;;;;;;;;18.40;99.90;;;;;;5070783;28;19991;-74
2022/06/30 14:09:23;;;;;;;;;;;18.30;99.90;;;;;;5071273;28;20003;-75
2022/06/30 14:11:48;;;;;;;;;;;18.30;99.90;;;;;;5070549;28;20376;-74
2022/06/30 14:14:14;;;;;;;;;;;18.20;99.90;;;;;;5071487;28;19915;-74
2022/06/30 14:16:39;;;;;;;;;;;18.10;99.90;;;;;;5070614;28;20317;-74
2022/06/30 14:19:05;;;;;;;;;;;18.10;99.90;;;;;;5071480;28;19905;-75
2022/06/30 14:21:31;;;;;;;;;;;18.20;99.90;;;;;;5071148;28;19906;-75
2022/06/30 14:23:57;;;;;;;;;;;18.30;99.90;;;;;;5070750;28;19908;-75
2022/06/30 14:26:23;;;;;;;;;;;18.40;99.90;;;;;;5071481;28;19928;-75
2022/06/30 14:28:48;;;;;;;;;;;18.50;99.90;;;;;;5070639;28;20065;-75
2022/06/30 14:31:15;;;;;;;;;;;18.60;99.90;;;;;;5071095;28;19991;-74